logo
Rechercher aéroport 
image banner adimage banner adimage banner ad
image banner ad

CSF8 - Spitfire Air

Situé à Lampman, Canada

ICAO - CSF8, IATA -

Données fournies par Airmate  

Information générale

Coordonnées: N49°29'24" W102°52'58"
Élévation : 1975 feet MSL.
Variation magnétique : 7.7858° East
Voir autres Aéroports à Quebec

Données opérationnelles

Special qualification required
Heure actuelle UTC:
Heure actuelle locale:
Météo à : CYEN - Estevan Regional ( 32 km )
METAR: CYEN 131000Z AUTO 10005KT 5SM BR CLR M16/M18 A3008 RMK SLP239
TAF: TAF CYEN 061740Z 0618/0624 31022G32KT P6SM FEW030 FM062300 31020KT P6SM SKC RMK FCST BASED ON AUTO OBS. NXT FCST BY 071200Z
Voir NOTAMs / SUP AIP / TFR affectant cet aéroport [VIEW]
Fréquences de communication: [VIEW]

Pistes:

Identifiant RWYQFULongueur (ft)Largeur (ft)SurfaceLDA (ft)
18190°253150GRAVE2224
3610°253150GRAVE2531

Coordonnées de l'aéroport

Adresse: Lampman Canada

Vue satellite de CSF8